createdAt,value
2022-11-13T00:02:10.511Z,69.00
2022-11-13T00:04:37.093Z,71.62
2022-11-13T00:07:03.719Z,65.12
2022-11-13T00:14:46.973Z,47.90
2022-11-13T00:19:55.206Z,39.70
2022-11-13T00:22:21.880Z,36.42
2022-11-13T00:24:48.426Z,34.33
2022-11-13T00:27:14.996Z,33.00
2022-11-13T00:29:41.605Z,32.30
2022-11-13T00:32:08.162Z,32.80
2022-11-13T00:34:46.957Z,32.97
2022-11-13T00:37:14.549Z,34.95
2022-11-13T00:39:41.079Z,34.60
2022-11-13T00:42:07.588Z,33.28
2022-11-13T00:44:34.343Z,32.28
2022-11-13T00:47:00.982Z,33.38
2022-11-13T00:49:27.680Z,34.95
2022-11-13T00:51:54.214Z,35.05
2022-11-13T00:54:20.784Z,33.63
2022-11-13T00:56:47.317Z,35.67
2022-11-13T00:59:14.043Z,32.97
2022-11-13T01:01:40.676Z,32.78
2022-11-13T01:04:07.276Z,33.78
2022-11-13T01:06:33.818Z,34.58
2022-11-13T01:09:00.361Z,35.03
2022-11-13T01:11:29.215Z,36.35
2022-11-13T01:13:56.352Z,34.20
2022-11-13T01:16:26.146Z,33.28
2022-11-13T01:21:47.950Z,34.13
2022-11-13T01:24:14.499Z,34.75
2022-11-13T01:26:41.024Z,32.83
2022-11-13T01:29:22.979Z,33.20
2022-11-13T01:31:49.564Z,33.47
2022-11-13T01:34:16.095Z,32.67
2022-11-13T01:36:42.643Z,34.03
2022-11-13T01:39:11.575Z,33.83
2022-11-13T01:41:38.870Z,31.33
2022-11-13T01:47:44.247Z,35.63
2022-11-13T01:50:14.788Z,33.55
2022-11-13T01:52:42.946Z,32.20
2022-11-13T01:55:15.969Z,33.03
2022-11-13T02:00:20.883Z,32.75
2022-11-13T02:02:47.474Z,32.97
2022-11-13T02:05:14.098Z,34.95
2022-11-13T02:07:40.626Z,38.35
2022-11-13T02:10:07.893Z,41.15
2022-11-13T02:12:43.616Z,43.42
2022-11-13T02:15:10.583Z,42.30
2022-11-13T02:17:54.201Z,42.75
2022-11-13T02:20:40.550Z,39.58
2022-11-13T02:23:51.498Z,38.50
2022-11-13T02:26:21.097Z,34.70
2022-11-13T02:28:47.664Z,32.90
2022-11-13T02:31:45.164Z,34.35
2022-11-13T02:34:42.426Z,33.58
2022-11-13T02:37:15.813Z,34.72
2022-11-13T02:44:52.813Z,34.22
2022-11-13T02:47:19.347Z,33.95
2022-11-13T02:49:45.899Z,33.47
2022-11-13T02:57:23.100Z,33.90
2022-11-13T03:02:31.060Z,34.83
2022-11-13T03:05:14.020Z,34.75
2022-11-13T03:10:46.761Z,35.03
2022-11-13T03:13:13.356Z,34.55
2022-11-13T03:15:40.475Z,34.78
2022-11-13T03:18:07.870Z,37.63
2022-11-13T03:20:37.114Z,36.85
2022-11-13T03:23:04.414Z,35.22
2022-11-13T03:25:30.947Z,35.33
2022-11-13T03:27:57.509Z,35.55
2022-11-13T03:30:24.140Z,35.92
2022-11-13T03:32:57.296Z,36.25
2022-11-13T03:35:28.613Z,35.75
2022-11-13T03:37:57.054Z,35.83
2022-11-13T03:48:36.135Z,34.00
2022-11-13T03:51:02.794Z,32.92
2022-11-13T03:53:29.382Z,35.85
2022-11-13T03:56:27.276Z,34.88
2022-11-13T03:59:25.083Z,32.78
2022-11-13T04:02:06.915Z,33.22
2022-11-13T04:04:33.608Z,32.40
2022-11-13T04:07:00.275Z,32.65
2022-11-13T04:09:26.823Z,33.20
2022-11-13T04:11:53.371Z,32.20
2022-11-13T04:14:19.956Z,30.80
2022-11-13T04:16:46.535Z,29.90
2022-11-13T04:19:13.351Z,29.60
2022-11-13T04:21:39.874Z,29.87
2022-11-13T04:24:06.697Z,29.90
2022-11-13T04:26:33.419Z,29.85
2022-11-13T04:28:59.967Z,29.65
2022-11-13T04:31:51.458Z,27.77
2022-11-13T04:34:33.319Z,29.23
2022-11-13T04:36:59.902Z,28.90
2022-11-13T04:39:26.434Z,29.50
2022-11-13T04:42:11.654Z,29.40
2022-11-13T04:45:02.621Z,28.50
2022-11-13T04:47:29.949Z,29.25
2022-11-13T04:49:56.466Z,30.92
2022-11-13T04:52:23.007Z,28.12
2022-11-13T04:54:49.549Z,28.55
2022-11-13T04:57:16.089Z,28.48
2022-11-13T05:00:02.303Z,29.20
2022-11-13T05:05:10.128Z,26.62
2022-11-13T05:07:37.143Z,25.92
2022-11-13T05:10:04.378Z,27.52
2022-11-13T05:12:30.921Z,28.27
2022-11-13T05:14:57.462Z,25.55
2022-11-13T05:17:24.004Z,25.20
2022-11-13T05:20:24.691Z,25.48
2022-11-13T05:23:07.850Z,24.63
2022-11-13T05:25:34.453Z,24.80
2022-11-13T05:28:03.092Z,24.77
2022-11-13T05:30:29.609Z,24.87
2022-11-13T05:33:11.230Z,24.45
2022-11-13T05:35:37.773Z,23.77
2022-11-13T05:38:04.321Z,26.80
2022-11-13T05:40:40.903Z,25.35
2022-11-13T05:43:07.426Z,24.80
2022-11-13T05:45:33.998Z,24.77
2022-11-13T05:48:00.526Z,24.17
2022-11-13T05:50:27.063Z,25.05
2022-11-13T05:52:53.672Z,26.08
2022-11-13T05:55:23.297Z,24.98
2022-11-13T05:57:50.184Z,25.42
2022-11-13T06:00:17.988Z,24.05
2022-11-13T06:02:47.449Z,23.90
2022-11-13T06:05:14.038Z,24.80
2022-11-13T06:07:40.582Z,25.83
2022-11-13T06:17:52.883Z,23.83
2022-11-13T06:20:19.402Z,24.02
2022-11-13T06:22:46.204Z,24.33
2022-11-13T06:25:22.075Z,24.17
2022-11-13T06:27:48.648Z,24.37
2022-11-13T06:30:15.514Z,23.85
2022-11-13T06:32:42.042Z,23.80
2022-11-13T06:35:08.824Z,23.85
2022-11-13T06:37:35.387Z,23.42
2022-11-13T06:40:01.991Z,22.83
2022-11-13T06:45:16.653Z,23.98
2022-11-13T06:50:36.083Z,25.85
2022-11-13T06:53:03.100Z,23.58
2022-11-13T06:56:23.758Z,22.70
2022-11-13T06:59:10.021Z,24.35
2022-11-13T07:01:36.755Z,23.48
2022-11-13T07:04:04.604Z,24.75
2022-11-13T07:06:31.851Z,22.95
2022-11-13T07:09:00.475Z,21.12
2022-11-13T07:11:37.890Z,22.48
2022-11-13T07:36:08.736Z,21.40
2022-11-13T07:38:35.875Z,21.98
2022-11-13T07:44:52.888Z,21.25
2022-11-13T07:47:11.516Z,21.98
2022-11-13T07:49:38.237Z,20.25
2022-11-13T07:52:05.078Z,21.87
2022-11-13T07:54:31.611Z,21.23
2022-11-13T07:56:58.198Z,20.85
2022-11-13T07:59:24.803Z,22.17
2022-11-13T08:01:51.509Z,20.10
2022-11-13T08:04:18.138Z,20.95
2022-11-13T08:06:44.780Z,22.15
2022-11-13T08:09:11.350Z,22.50
2022-11-13T08:11:38.012Z,21.33
2022-11-13T08:14:04.690Z,20.92
2022-11-13T08:16:31.300Z,21.08
2022-11-13T08:18:57.918Z,21.10
2022-11-13T08:21:24.538Z,20.70
2022-11-13T08:23:51.171Z,20.90
2022-11-13T08:26:18.874Z,21.37
2022-11-13T08:28:45.620Z,20.50
2022-11-13T08:31:13.620Z,20.75
2022-11-13T08:33:41.256Z,20.88
2022-11-13T08:36:09.601Z,26.58
2022-11-13T08:38:36.728Z,21.52
2022-11-13T08:41:08.999Z,22.52
2022-11-13T08:46:02.961Z,22.17
2022-11-13T08:48:30.306Z,22.55
2022-11-13T08:50:57.912Z,24.25
2022-11-13T08:53:25.886Z,22.33
2022-11-13T08:55:55.354Z,24.00
2022-11-13T08:58:21.862Z,24.35
2022-11-13T09:00:48.765Z,23.58
2022-11-13T09:03:15.285Z,26.00
2022-11-13T09:05:42.247Z,30.15
2022-11-13T09:08:09.992Z,26.50
2022-11-13T09:10:36.578Z,24.23
2022-11-13T09:13:05.546Z,24.52
2022-11-13T09:15:32.615Z,26.05
2022-11-13T09:18:00.337Z,26.67
2022-11-13T09:20:29.095Z,27.10
2022-11-13T09:23:00.170Z,28.62
2022-11-13T09:25:31.453Z,27.05
2022-11-13T09:28:03.926Z,26.35
2022-11-13T09:30:30.916Z,27.65
2022-11-13T09:32:59.582Z,27.70
2022-11-13T09:35:34.316Z,26.40
2022-11-13T09:38:11.556Z,24.35
2022-11-13T09:40:43.278Z,26.40
2022-11-13T09:43:43.262Z,26.40
2022-11-13T09:46:25.068Z,27.15
2022-11-13T09:48:58.617Z,25.83
2022-11-13T09:51:30.979Z,26.05
2022-11-13T09:53:59.391Z,25.80
2022-11-13T09:56:32.444Z,25.73
2022-11-13T09:58:58.924Z,24.12
2022-11-13T10:01:54.927Z,23.42
2022-11-13T10:04:56.007Z,23.08
2022-11-13T10:07:41.376Z,24.25
2022-11-13T10:10:28.463Z,23.38
2022-11-13T10:12:58.951Z,24.58
2022-11-13T10:15:26.939Z,24.23
2022-11-13T10:18:05.793Z,23.23
2022-11-13T10:20:40.055Z,24.27
2022-11-13T10:23:21.075Z,24.50
2022-11-13T10:25:48.427Z,23.83
2022-11-13T10:31:05.108Z,25.15
2022-11-13T10:33:31.831Z,24.40
2022-11-13T10:36:20.175Z,24.10
2022-11-13T10:39:04.855Z,24.87
2022-11-13T10:41:31.971Z,25.27
2022-11-13T10:44:04.380Z,24.20
2022-11-13T10:46:31.771Z,23.98
2022-11-13T10:48:59.203Z,24.12
2022-11-13T10:51:35.428Z,21.48
2022-11-13T10:54:25.040Z,21.80
2022-11-13T10:57:01.995Z,20.73
2022-11-13T10:59:40.067Z,21.35
2022-11-13T11:02:26.545Z,21.62
2022-11-13T11:05:07.754Z,21.73
2022-11-13T11:07:41.091Z,19.98
2022-11-13T11:10:19.761Z,21.58
2022-11-13T11:12:58.377Z,21.42
2022-11-13T11:15:46.886Z,19.42
2022-11-13T11:18:31.044Z,18.83
2022-11-13T11:21:01.962Z,20.37
2022-11-13T11:23:55.732Z,19.58
2022-11-13T11:26:48.706Z,18.60
2022-11-13T11:29:34.923Z,42.30
2022-11-13T11:32:12.664Z,18.15
2022-11-13T11:34:44.600Z,19.23
2022-11-13T11:37:23.812Z,18.58
2022-11-13T11:39:57.754Z,18.77
2022-11-13T11:42:30.406Z,17.50
2022-11-13T11:45:12.271Z,19.25
2022-11-13T11:47:39.921Z,18.35
2022-11-13T11:50:13.382Z,18.20
2022-11-13T11:52:51.311Z,18.73
2022-11-13T11:55:49.009Z,18.20
2022-11-13T11:58:37.465Z,18.27
2022-11-13T12:01:36.215Z,18.40
2022-11-13T12:04:21.571Z,17.20
2022-11-13T12:07:14.250Z,17.27
2022-11-13T12:10:07.130Z,18.10
2022-11-13T12:12:48.868Z,16.62
2022-11-13T12:15:20.824Z,17.37
2022-11-13T12:18:14.119Z,17.55
2022-11-13T12:23:25.193Z,16.92
2022-11-13T12:26:03.222Z,16.73
2022-11-13T12:28:41.095Z,17.08
2022-11-13T12:31:16.345Z,17.80
2022-11-13T12:34:01.756Z,17.48
2022-11-13T12:36:29.718Z,18.65
2022-11-13T12:45:02.875Z,18.65
2022-11-13T12:47:29.578Z,18.23
2022-11-13T12:50:22.079Z,17.73
2022-11-13T12:52:59.802Z,18.40
2022-11-13T12:55:29.924Z,18.50
2022-11-13T12:58:07.458Z,18.73
2022-11-13T13:00:36.244Z,17.75
2022-11-13T13:03:38.633Z,17.55
2022-11-13T13:09:02.827Z,19.33
2022-11-13T13:11:44.225Z,19.42
2022-11-13T13:14:41.536Z,19.95
2022-11-13T13:17:14.584Z,18.45
2022-11-13T13:22:30.963Z,18.92
2022-11-13T13:25:10.608Z,19.48
2022-11-13T13:27:40.120Z,18.30
2022-11-13T13:30:17.379Z,19.95
2022-11-13T13:33:19.163Z,19.27
2022-11-13T13:35:57.767Z,19.98
2022-11-13T13:38:33.033Z,19.52
2022-11-13T13:41:21.235Z,20.15
2022-11-13T13:43:50.798Z,19.00
2022-11-13T13:46:24.620Z,22.25
2022-11-13T13:48:55.572Z,21.55
2022-11-13T13:51:32.802Z,19.83
2022-11-13T13:54:02.091Z,21.98
2022-11-13T13:56:28.662Z,20.90
2022-11-13T13:58:55.354Z,20.40
2022-11-13T14:01:35.580Z,20.48
2022-11-13T14:04:20.907Z,21.58
2022-11-13T14:09:47.732Z,20.52
2022-11-13T14:12:22.266Z,21.52
2022-11-13T14:14:49.121Z,21.42
2022-11-13T14:17:24.966Z,20.08
2022-11-13T14:19:53.251Z,20.95
2022-11-13T14:22:21.315Z,23.02
2022-11-13T14:25:00.665Z,22.42
2022-11-13T14:27:28.476Z,19.80
2022-11-13T14:30:04.057Z,26.60
2022-11-13T14:32:33.857Z,27.73
2022-11-13T14:35:03.334Z,31.67
2022-11-13T14:37:38.730Z,28.38
2022-11-13T14:40:19.269Z,25.73
2022-11-13T14:42:50.841Z,26.58
2022-11-13T15:35:26.766Z,22.62
2022-11-13T15:37:54.290Z,24.60
2022-11-13T15:40:21.034Z,23.70
2022-11-13T15:42:47.740Z,23.65
2022-11-13T15:45:16.460Z,25.67
2022-11-13T15:47:43.167Z,26.33
2022-11-13T15:50:13.810Z,26.80
2022-11-13T15:52:47.350Z,28.00
2022-11-13T15:55:28.836Z,27.30
2022-11-13T15:57:55.752Z,31.00
2022-11-13T16:00:27.681Z,29.40
2022-11-13T16:02:56.179Z,28.40
2022-11-13T16:05:25.839Z,28.87
2022-11-13T16:07:53.611Z,28.05
2022-11-13T16:10:31.341Z,27.17
2022-11-13T16:12:57.847Z,29.27
2022-11-13T16:15:24.458Z,29.20
2022-11-13T16:17:55.102Z,27.27
2022-11-13T16:20:21.789Z,29.70
2022-11-13T16:22:48.411Z,28.30
2022-11-13T16:25:19.270Z,28.52
2022-11-13T16:27:46.579Z,29.60
2022-11-13T16:30:20.182Z,30.55
2022-11-13T16:32:47.377Z,30.62
2022-11-13T16:35:19.770Z,30.30
2022-11-13T16:37:46.986Z,29.92
2022-11-13T16:40:21.151Z,31.33
2022-11-13T16:42:47.986Z,30.00
2022-11-13T16:45:14.881Z,32.08
2022-11-13T16:47:41.518Z,35.03
2022-11-13T16:50:24.047Z,33.85
2022-11-13T16:52:51.041Z,38.35
2022-11-13T16:55:17.684Z,32.92
2022-11-13T17:06:09.264Z,35.55
2022-11-13T17:08:35.856Z,32.95
2022-11-13T17:11:02.643Z,31.50
2022-11-13T17:13:29.632Z,32.50
2022-11-13T17:16:01.488Z,31.70
2022-11-13T17:18:28.032Z,31.67
2022-11-13T17:20:54.605Z,30.23
2022-11-13T17:23:21.192Z,30.90
2022-11-13T17:25:47.943Z,28.90
2022-11-13T17:28:15.991Z,28.75
2022-11-13T17:30:42.604Z,30.25
2022-11-13T17:33:09.147Z,31.85
2022-11-13T17:35:35.663Z,32.78
2022-11-13T17:38:02.468Z,32.88
2022-11-13T17:40:29.014Z,32.92
2022-11-13T17:48:40.969Z,35.63
2022-11-13T17:51:11.457Z,35.13
2022-11-13T17:53:39.627Z,33.65
2022-11-13T17:56:10.393Z,34.30
2022-11-13T17:58:39.753Z,33.92
2022-11-13T18:01:10.335Z,33.38
2022-11-13T18:03:37.181Z,33.13
2022-11-13T18:06:19.555Z,32.70
2022-11-13T18:08:46.886Z,32.78
2022-11-13T18:11:19.216Z,34.30
2022-11-13T18:13:47.228Z,35.65
2022-11-13T18:16:20.157Z,37.33
2022-11-13T18:18:53.571Z,39.20
2022-11-13T18:21:23.810Z,35.25
2022-11-13T18:23:57.248Z,37.38
2022-11-13T18:26:24.741Z,35.67
2022-11-13T18:28:53.767Z,34.03
2022-11-13T18:31:20.699Z,35.72
2022-11-13T18:33:47.825Z,37.00
2022-11-13T18:36:14.407Z,35.60
2022-11-13T18:38:41.411Z,34.78
2022-11-13T18:41:10.902Z,34.33
2022-11-13T18:43:37.883Z,37.78
2022-11-13T18:46:06.945Z,39.40
2022-11-13T18:48:35.634Z,38.42
2022-11-13T18:51:08.222Z,37.00
2022-11-13T18:53:37.985Z,36.25
2022-11-13T18:56:06.890Z,37.65
2022-11-13T18:58:37.274Z,38.17
2022-11-13T19:01:27.524Z,40.42
2022-11-13T19:04:21.148Z,34.25
2022-11-13T19:06:43.367Z,33.65
2022-11-13T19:09:15.237Z,33.75
2022-11-13T19:11:42.996Z,36.08
2022-11-13T19:14:10.996Z,33.88
2022-11-13T19:16:45.212Z,34.78
2022-11-13T19:19:17.923Z,33.00
2022-11-13T19:21:53.516Z,33.33
2022-11-13T19:24:20.097Z,31.35
2022-11-13T19:26:46.754Z,30.92
2022-11-13T19:29:13.863Z,29.75
2022-11-13T19:31:40.596Z,31.12
2022-11-13T19:34:08.302Z,32.35
2022-11-13T19:36:35.655Z,34.03
2022-11-13T19:39:03.136Z,32.67
2022-11-13T19:41:29.942Z,30.65
2022-11-13T19:43:59.322Z,28.80
2022-11-13T19:46:26.021Z,28.48
2022-11-13T19:48:52.567Z,28.60
2022-11-13T19:51:23.191Z,26.55
2022-11-13T19:53:54.961Z,27.55
2022-11-13T19:56:23.032Z,28.87
2022-11-13T19:58:51.277Z,28.70
2022-11-13T20:01:23.998Z,26.80
2022-11-13T20:03:58.911Z,27.50
2022-11-13T20:06:26.366Z,28.35
2022-11-13T20:08:52.929Z,29.63
2022-11-13T20:11:20.496Z,29.15
2022-11-13T20:13:47.337Z,33.78
2022-11-13T20:16:30.199Z,29.27
2022-11-13T20:18:57.828Z,30.35
2022-11-13T20:21:26.570Z,30.85
2022-11-13T20:23:55.766Z,30.55
2022-11-13T20:27:21.540Z,30.60
2022-11-13T20:30:04.679Z,31.70
2022-11-13T20:32:31.401Z,31.85
2022-11-13T20:34:57.980Z,33.25
2022-11-13T20:37:24.564Z,32.30
2022-11-13T20:39:51.955Z,37.65
2022-11-13T20:42:29.231Z,27.60
2022-11-13T20:44:59.978Z,27.17
2022-11-13T20:47:27.760Z,31.17
2022-11-13T20:49:54.303Z,31.35
2022-11-13T20:52:20.822Z,34.38
2022-11-13T20:54:47.331Z,30.45
2022-11-13T20:57:13.927Z,29.25
2022-11-13T20:59:40.440Z,28.02
2022-11-13T21:02:07.119Z,30.70
2022-11-13T21:04:33.900Z,26.37
2022-11-13T21:07:00.577Z,27.23
2022-11-13T21:09:27.179Z,30.80
2022-11-13T21:11:53.757Z,30.15
2022-11-13T21:14:42.268Z,27.90
2022-11-13T21:17:09.115Z,31.15
2022-11-13T21:19:35.693Z,30.42
2022-11-13T21:22:02.320Z,30.42
2022-11-13T21:33:09.322Z,35.35
2022-11-13T21:35:35.887Z,36.13
2022-11-13T21:38:04.713Z,31.00
2022-11-13T21:40:31.291Z,32.15
2022-11-13T21:42:57.916Z,32.67
2022-11-13T21:56:15.677Z,26.95
2022-11-13T21:58:43.478Z,27.77
2022-11-13T22:01:38.547Z,29.70
2022-11-13T22:04:27.804Z,35.35
2022-11-13T22:06:54.433Z,31.70
2022-11-13T22:09:23.877Z,30.58
2022-11-13T22:11:51.036Z,29.80
2022-11-13T22:14:17.610Z,27.40
2022-11-13T22:16:46.743Z,29.15
2022-11-13T22:24:23.889Z,25.42
2022-11-13T22:26:50.483Z,28.52
2022-11-13T22:29:17.243Z,26.77
2022-11-13T22:31:44.994Z,25.42
2022-11-13T22:34:11.814Z,27.23
2022-11-13T22:36:38.427Z,27.17
2022-11-13T22:39:06.051Z,28.40
2022-11-13T22:41:34.840Z,28.45
2022-11-13T22:44:03.141Z,26.27
2022-11-13T22:46:32.119Z,23.27
2022-11-13T22:49:17.069Z,23.92
2022-11-13T22:51:43.605Z,24.40
2022-11-13T22:54:12.376Z,25.70
2022-11-13T22:56:40.765Z,24.63
2022-11-13T22:59:40.266Z,25.17
2022-11-13T23:05:31.142Z,25.37
2022-11-13T23:07:57.720Z,28.70
2022-11-13T23:10:27.668Z,27.58
2022-11-13T23:12:54.488Z,27.58
2022-11-13T23:15:21.120Z,28.45
2022-11-13T23:17:47.713Z,26.35
2022-11-13T23:20:33.103Z,26.33
2022-11-13T23:22:59.697Z,28.38
2022-11-13T23:25:26.316Z,25.88
2022-11-13T23:27:52.867Z,25.67
2022-11-13T23:30:42.076Z,26.12
2022-11-13T23:33:31.430Z,25.23
2022-11-13T23:36:02.924Z,27.20
2022-11-13T23:38:29.841Z,25.05
2022-11-13T23:40:58.533Z,23.30
2022-11-13T23:43:47.391Z,23.08
2022-11-13T23:46:13.236Z,25.00
2022-11-13T23:48:40.283Z,23.77
2022-11-13T23:51:07.390Z,23.98
2022-11-13T23:53:33.986Z,24.27
